Flight Track Log - Related Links

Times and Time Zones

All times are in EDT time to prevent confusion due to time zone crossing. See the CPT8773 flight status page for this flight to view local times or setup timezone preferences in your user account.

Time Position Orientation Groundspeed Altitude Reporting Facility
EDT Latitude Longitude Course Direction KTS MPH feet Rate Location/Type
Mon 08:59:14 AM 42.9847 -106.4850 308° West 133 153 7,200  Level Salt Lake Center
Mon 09:00:14 AM 43.0219 -106.5075 336° Northwest 131 151 7,900 579 Climbing Salt Lake Center
Mon 09:01:08 AM 43.0458 -106.5239 333° Northwest 130 150 8,300 470 Climbing Denver Center
Mon 09:02:09 AM 43.0811 -106.5500 332° Northwest 129 148 8,800 541 Climbing Denver Center
Mon 09:03:00 AM 43.0903 -106.2789 308° West  Level FlightAware Approximate
Mon 09:03:10 AM 43.1133 -106.5717 334° Northwest 131 151 9,400  Level Denver Center
Mon 09:04:00 AM 43.1148 -106.3218 308° West  Level FlightAware Approximate
Mon 09:04:11 AM 43.1469 -106.5917 337° Northwest 134 154 9,900  Level Denver Center
Mon 09:05:12 AM 43.1808 -106.6167 332° Northwest 128 147 10,400 541 Climbing Denver Center
Mon 09:06:13 AM 43.2100 -106.6411 329° Northwest 127 146 11,000 541 Climbing Denver Center
Mon 09:07:14 AM 43.2433 -106.6683 329° Northwest 125 144 11,500 492 Climbing Denver Center
Mon 09:08:15 AM 43.2728 -106.6892 333° Northwest 124 143 12,000 246 Climbing Denver Center
Mon 09:09:16 AM 43.3025 -106.7153 327° Northwest 131 151 12,000  Level Denver Center
Mon 09:10:17 AM 43.3436 -106.7514 327° Northwest 153 176 12,000  Level Denver Center
Mon 09:11:18 AM 43.3672 -106.7975 305° West 154 177 12,000  Level Denver Center
Mon 09:12:20 AM 43.3886 -106.8461 301° West 153 176 12,000  Level Denver Center
Mon 09:13:21 AM 43.4175 -106.8972 308° West 155 178 12,000  Level Denver Center
Mon 09:14:22 AM 43.4425 -106.9439 306° West 156 180 12,000  Level Denver Center
Mon 09:15:23 AM 43.4692 -106.9986 304° West 155 178 12,000  Level Denver Center
Mon 09:16:24 AM 43.4944 -107.0433 308° West 156 180 12,000  Level Denver Center
Mon 09:17:25 AM 43.5186 -107.0908 305° West 157 181 12,000  Level Denver Center
Mon 09:18:26 AM 43.5467 -107.1450 306° West 157 181 12,000  Level Denver Center
Mon 09:19:27 AM 43.5714 -107.1897 307° West 155 178 12,000  Level Denver Center
Mon 09:20:28 AM 43.5961 -107.2369 306° West 157 181 12,000  Level Denver Center
Mon 09:21:34 AM 43.6233 -107.2931 304° West 156 180 12,000  Level Salt Lake Center
Mon 09:22:35 AM 43.6514 -107.3464 306° West 154 177 12,000  Level Salt Lake Center
Mon 09:23:36 AM 43.6753 -107.3906 307° West 152 175 12,000  Level Salt Lake Center
Mon 09:24:37 AM 43.6983 -107.4358 305° West 151 174 12,000  Level Salt Lake Center
Mon 09:25:38 AM 43.7264 -107.4883 306° West 151 174 12,000  Level Salt Lake Center
Mon 09:26:39 AM 43.7500 -107.5344 305° West 152 175 12,000  Level Salt Lake Center
Mon 09:27:40 AM 43.7742 -107.5797 306° West 153 176 12,000  Level Salt Lake Center
Mon 09:28:41 AM 43.8025 -107.6322 307° West 152 175 12,000  Level Salt Lake Center
Mon 09:29:42 AM 43.8269 -107.6769 307° West 153 176 12,000  Level Salt Lake Center
Mon 09:30:43 AM 43.8508 -107.7233 306° West 153 176 12,000  Level Salt Lake Center
Mon 09:31:44 AM 43.8783 -107.7756 306° West 151 174 12,000  Level Salt Lake Center
Mon 09:32:45 AM 43.9028 -107.8208 307° West 152 175 12,000  Level Salt Lake Center
Mon 09:33:46 AM 43.9261 -107.8664 305° West 152 175 12,000  Level Salt Lake Center
Mon 09:34:47 AM 43.9544 -107.9197 306° West 153 176 12,000  Level Salt Lake Center
Mon 09:35:49 AM 43.9775 -107.9656 305° West 153 176 12,000  Level Salt Lake Center
Mon 09:36:50 AM 44.0061 -108.0186 307° West 153 176 12,000  Level Salt Lake Center
Mon 09:37:51 AM 44.0297 -108.0656 305° West 154 177 12,000  Level Salt Lake Center
Mon 09:38:52 AM 44.0528 -108.1103 306° West 152 175 12,000  Level Salt Lake Center
Mon 09:39:54 AM 44.0800 -108.1617 306° West 150 173 12,000  Level Salt Lake Center
Mon 09:40:55 AM 44.1039 -108.2067 306° West 150 173 12,000  Level Salt Lake Center
Mon 09:41:56 AM 44.1261 -108.2517 305° West 149 171 12,000  Level Salt Lake Center
Mon 09:42:57 AM 44.1536 -108.3039 306° West 149 171 12,000  Level Salt Lake Center
Mon 09:43:59 AM 44.1764 -108.3492 305° West 149 171 12,000  Level Salt Lake Center
Mon 09:45:00 AM 44.2028 -108.4025 305° West 149 171 12,000  Level Salt Lake Center
Mon 09:46:01 AM 44.2258 -108.4467 306° West 148 170 12,000  Level Salt Lake Center
Mon 09:47:02 AM 44.2481 -108.4919 304° West 147 169 12,000 -146 Level Salt Lake Center
Mon 09:48:04 AM 44.2767 -108.5436 308° West 148 170 11,700 -341 Descending Salt Lake Center
Mon 09:49:05 AM 44.3028 -108.5917 307° West 154 177 11,300 -393 Descending Salt Lake Center

Login

Don't have an account? Register now (free) for customized features, flight alerts, and more!